createdAt,value
2019-05-26T00:00:59.751Z,63.34
2019-05-26T00:03:28.766Z,63.45
2019-05-26T00:05:57.699Z,63.43
2019-05-26T00:08:26.712Z,63.59
2019-05-26T00:10:55.440Z,63.81
2019-05-26T00:13:24.529Z,63.94
2019-05-26T00:15:53.165Z,64.42
2019-05-26T00:18:21.785Z,64.03
2019-05-26T00:20:50.353Z,63.89
2019-05-26T00:23:19.352Z,63.88
2019-05-26T00:25:48.888Z,64.03
2019-05-26T00:28:17.505Z,64.55
2019-05-26T00:30:46.400Z,64.47
2019-05-26T00:33:15.318Z,64.73
2019-05-26T00:35:44.030Z,64.92
2019-05-26T00:38:12.743Z,64.95
2019-05-26T00:40:41.371Z,64.72
2019-05-26T00:43:10.534Z,64.34
2019-05-26T00:45:39.389Z,63.44
2019-05-26T00:48:09.076Z,63.25
2019-05-26T00:50:38.506Z,63.50
2019-05-26T00:53:07.223Z,63.43
2019-05-26T00:55:36.148Z,63.73
2019-05-26T00:58:04.779Z,63.75
2019-05-26T01:00:44.000Z,63.64
2019-05-26T01:03:14.035Z,63.95
2019-05-26T01:05:43.650Z,64.30
2019-05-26T01:08:12.372Z,64.69
2019-05-26T01:10:41.408Z,65.37
2019-05-26T01:13:10.107Z,66.20
2019-05-26T01:15:39.014Z,65.22
2019-05-26T01:18:08.500Z,65.64
2019-05-26T01:20:37.420Z,66.56
2019-05-26T01:23:06.066Z,67.00
2019-05-26T01:25:35.032Z,67.77
2019-05-26T01:28:04.716Z,68.00
2019-05-26T01:30:39.349Z,68.23
2019-05-26T01:33:08.743Z,69.26
2019-05-26T01:35:41.564Z,70.25
2019-05-26T01:38:23.113Z,71.03
2019-05-26T01:40:44.909Z,71.48
2019-05-26T01:43:13.955Z,71.69
2019-05-26T01:45:42.600Z,71.65
2019-05-26T01:48:11.234Z,71.83
2019-05-26T01:50:39.920Z,72.28
2019-05-26T01:53:08.978Z,72.37
2019-05-26T01:55:38.143Z,72.33
2019-05-26T01:58:07.702Z,71.89
2019-05-26T02:00:36.351Z,72.28
2019-05-26T02:03:05.601Z,72.77
2019-05-26T02:05:34.241Z,72.56
2019-05-26T02:08:03.761Z,72.37
2019-05-26T02:10:32.761Z,72.84
2019-05-26T02:13:01.565Z,72.99
2019-05-26T02:15:30.714Z,73.22
2019-05-26T02:17:59.565Z,73.27
2019-05-26T02:20:28.340Z,73.68
2019-05-26T02:22:56.985Z,74.08
2019-05-26T02:25:26.527Z,74.20
2019-05-26T02:27:56.112Z,73.88
2019-05-26T02:30:25.024Z,73.77
2019-05-26T02:32:53.969Z,74.61
2019-05-26T02:35:22.825Z,74.67
2019-05-26T02:37:51.677Z,74.80
2019-05-26T02:40:21.787Z,74.50
2019-05-26T02:42:50.436Z,74.55
2019-05-26T02:45:22.060Z,74.61
2019-05-26T02:47:51.099Z,74.65
2019-05-26T02:50:20.512Z,74.57
2019-05-26T02:52:49.158Z,74.72
2019-05-26T02:55:19.739Z,74.92
2019-05-26T02:57:50.082Z,74.95
2019-05-26T03:00:25.546Z,74.46
2019-05-26T03:02:55.249Z,74.63
2019-05-26T03:05:23.981Z,74.30
2019-05-26T03:07:53.755Z,74.30
2019-05-26T03:10:23.418Z,74.05
2019-05-26T03:12:53.838Z,74.24
2019-05-26T03:15:23.642Z,73.49
2019-05-26T03:17:54.829Z,71.48
2019-05-26T03:20:23.756Z,70.88
2019-05-26T03:22:56.658Z,71.32
2019-05-26T03:25:25.580Z,72.10
2019-05-26T03:27:54.327Z,72.34
2019-05-26T03:30:25.438Z,72.57
2019-05-26T03:32:54.734Z,72.06
2019-05-26T03:35:24.266Z,70.69
2019-05-26T03:37:53.059Z,70.86
2019-05-26T03:40:22.029Z,70.73
2019-05-26T03:42:51.571Z,70.07
2019-05-26T03:45:31.592Z,70.14
2019-05-26T03:48:01.063Z,70.75
2019-05-26T03:50:29.714Z,70.18
2019-05-26T03:52:58.361Z,69.98
2019-05-26T03:55:28.027Z,69.54
2019-05-26T03:57:56.689Z,69.67
2019-05-26T04:00:25.327Z,69.05
2019-05-26T04:02:54.985Z,68.98
2019-05-26T04:05:24.599Z,68.95
2019-05-26T04:07:54.058Z,68.72
2019-05-26T04:10:23.085Z,68.68
2019-05-26T04:12:52.088Z,68.44
2019-05-26T04:15:21.309Z,68.56
2019-05-26T04:17:50.072Z,67.92
2019-05-26T04:20:18.756Z,67.83
2019-05-26T04:22:47.606Z,68.63
2019-05-26T04:25:16.237Z,67.48
2019-05-26T04:27:45.787Z,67.83
2019-05-26T04:30:15.065Z,67.51
2019-05-26T04:32:43.933Z,67.70
2019-05-26T04:35:13.696Z,67.53
2019-05-26T04:37:43.379Z,67.07
2019-05-26T04:40:26.371Z,66.74
2019-05-26T04:42:43.710Z,66.46
2019-05-26T04:45:14.853Z,66.59
2019-05-26T04:47:43.837Z,66.49
2019-05-26T04:50:12.941Z,66.83
2019-05-26T04:52:41.968Z,66.32
2019-05-26T04:55:10.907Z,65.63
2019-05-26T04:57:40.420Z,66.21
2019-05-26T05:00:10.480Z,66.91
2019-05-26T05:02:41.686Z,65.41
2019-05-26T05:05:11.578Z,65.60
2019-05-26T05:07:39.973Z,65.96
2019-05-26T05:10:08.798Z,65.30
2019-05-26T05:12:37.490Z,64.01
2019-05-26T05:15:09.442Z,64.30
2019-05-26T05:17:38.079Z,64.67
2019-05-26T05:20:08.025Z,63.86
2019-05-26T05:22:36.655Z,63.24
2019-05-26T05:25:14.685Z,62.84
2019-05-26T05:27:39.944Z,62.88
2019-05-26T05:30:09.016Z,61.74
2019-05-26T05:32:37.644Z,61.26
2019-05-26T05:35:08.733Z,60.11
2019-05-26T05:37:37.297Z,59.44
2019-05-26T05:40:08.287Z,59.00
2019-05-26T05:42:36.929Z,58.61
2019-05-26T05:45:08.236Z,57.77
2019-05-26T05:47:37.009Z,58.31
2019-05-26T05:50:07.446Z,56.04
2019-05-26T05:52:36.102Z,56.37
2019-05-26T05:55:06.035Z,56.72
2019-05-26T05:57:34.711Z,55.45
2019-05-26T06:00:05.219Z,54.94
2019-05-26T06:02:33.860Z,53.12
2019-05-26T06:05:02.424Z,53.85
2019-05-26T06:07:31.056Z,52.14
2019-05-26T06:09:59.698Z,52.00
2019-05-26T06:12:28.336Z,52.39
2019-05-26T06:14:57.116Z,50.96
2019-05-26T06:17:25.681Z,51.29
2019-05-26T06:19:54.313Z,51.16
2019-05-26T06:22:22.954Z,50.77
2019-05-26T06:24:51.593Z,49.11
2019-05-26T06:27:20.235Z,48.24
2019-05-26T06:29:58.433Z,49.56
2019-05-26T06:32:19.243Z,47.29
2019-05-26T06:34:47.804Z,47.91
2019-05-26T06:37:16.414Z,46.82
2019-05-26T06:39:45.000Z,47.64
2019-05-26T06:42:13.639Z,48.88
2019-05-26T06:44:52.952Z,47.16
2019-05-26T06:47:12.753Z,46.64
2019-05-26T06:49:41.404Z,46.82
2019-05-26T06:52:09.999Z,47.30
2019-05-26T06:54:38.636Z,46.92
2019-05-26T06:57:07.271Z,44.65
2019-05-26T06:59:36.066Z,43.53
2019-05-26T07:02:05.008Z,44.66
2019-05-26T07:04:33.651Z,42.52
2019-05-26T07:07:02.292Z,41.54
2019-05-26T07:09:30.927Z,43.69
2019-05-26T07:12:00.599Z,43.50
2019-05-26T07:14:29.342Z,43.01
2019-05-26T07:16:57.960Z,41.83
2019-05-26T07:19:26.626Z,40.31
2019-05-26T07:21:55.266Z,39.55
2019-05-26T07:24:23.904Z,39.18
2019-05-26T07:26:52.390Z,37.94
2019-05-26T07:29:21.009Z,37.98
2019-05-26T07:31:49.572Z,35.80
2019-05-26T07:34:18.335Z,33.89
2019-05-26T07:36:46.865Z,34.74
2019-05-26T07:39:15.514Z,35.09
2019-05-26T07:41:44.104Z,34.62
2019-05-26T07:44:12.753Z,31.78
2019-05-26T07:46:41.297Z,29.96
2019-05-26T07:49:09.941Z,28.59
2019-05-26T07:51:38.569Z,23.98
2019-05-26T07:54:07.232Z,23.74
2019-05-26T07:56:35.790Z,21.85
2019-05-26T07:59:04.751Z,18.90
2019-05-26T08:01:36.056Z,15.84
2019-05-26T08:04:03.726Z,13.69
2019-05-26T08:06:32.285Z,13.07
2019-05-26T08:09:00.915Z,11.21
2019-05-26T08:11:29.570Z,10.46
2019-05-26T08:13:58.193Z,9.94
2019-05-26T08:16:26.819Z,9.94
2019-05-26T08:18:55.445Z,10.10
2019-05-26T08:21:24.300Z,10.12
2019-05-26T08:23:52.922Z,8.97
2019-05-26T08:26:21.603Z,7.86
2019-05-26T08:28:50.908Z,8.27
2019-05-26T08:31:19.538Z,7.62
2019-05-26T08:33:48.182Z,7.90
2019-05-26T08:36:16.894Z,7.79
2019-05-26T08:38:45.674Z,6.71
2019-05-26T08:41:14.297Z,6.92
2019-05-26T08:43:42.923Z,6.41
2019-05-26T08:46:11.575Z,6.97
2019-05-26T08:48:40.190Z,6.17
2019-05-26T08:51:08.827Z,6.84
2019-05-26T08:53:37.465Z,6.86
2019-05-26T08:56:06.003Z,6.63
2019-05-26T08:58:34.656Z,6.65
2019-05-26T09:01:03.283Z,6.02
2019-05-26T09:03:31.924Z,5.54
2019-05-26T09:06:00.553Z,5.88
2019-05-26T09:08:29.146Z,4.68
2019-05-26T09:10:57.783Z,5.79
2019-05-26T09:13:26.493Z,5.20
2019-05-26T09:15:55.124Z,5.38
2019-05-26T09:18:23.838Z,6.06
2019-05-26T09:20:52.543Z,6.28
2019-05-26T09:23:21.168Z,5.13
2019-05-26T09:25:49.802Z,5.91
2019-05-26T09:28:18.429Z,4.97
2019-05-26T09:30:47.135Z,5.41
2019-05-26T09:33:15.797Z,4.84
2019-05-26T09:35:44.549Z,6.48
2019-05-26T09:38:13.199Z,6.21
2019-05-26T09:40:41.892Z,5.25
2019-05-26T09:43:15.979Z,5.27
2019-05-26T09:45:40.989Z,6.30
2019-05-26T09:48:09.612Z,6.13
2019-05-26T09:50:38.256Z,5.71
2019-05-26T09:53:06.891Z,6.57
2019-05-26T09:55:35.634Z,6.52
2019-05-26T09:58:04.211Z,6.84
2019-05-26T10:00:32.884Z,6.84
2019-05-26T10:03:01.512Z,7.97
2019-05-26T10:05:30.183Z,7.28
2019-05-26T10:07:58.928Z,6.90
2019-05-26T10:10:27.546Z,6.42
2019-05-26T10:12:56.352Z,6.42
2019-05-26T10:15:25.006Z,5.31
2019-05-26T10:17:53.554Z,5.06
2019-05-26T10:20:22.193Z,4.93
2019-05-26T10:22:50.913Z,6.14
2019-05-26T10:25:19.547Z,5.76
2019-05-26T10:27:48.169Z,5.55
2019-05-26T10:30:17.244Z,5.17
2019-05-26T10:32:45.874Z,4.83
2019-05-26T10:35:15.705Z,5.50
2019-05-26T10:37:44.340Z,6.21
2019-05-26T10:40:14.236Z,5.73
2019-05-26T10:42:42.793Z,5.74
2019-05-26T10:45:11.821Z,5.94
2019-05-26T10:47:40.583Z,7.44
2019-05-26T10:50:10.033Z,7.88
2019-05-26T10:52:38.647Z,8.88
2019-05-26T10:55:08.188Z,10.74
2019-05-26T10:57:36.812Z,13.36
2019-05-26T11:00:10.620Z,13.57
2019-05-26T11:02:39.249Z,13.37
2019-05-26T11:05:08.360Z,13.14
2019-05-26T11:07:37.117Z,14.08
2019-05-26T11:10:07.572Z,14.93
2019-05-26T11:12:36.209Z,15.78
2019-05-26T11:15:07.805Z,14.63
2019-05-26T11:17:36.443Z,14.77
2019-05-26T11:20:09.890Z,16.18
2019-05-26T11:22:38.551Z,17.28
2019-05-26T11:25:07.876Z,18.00
2019-05-26T11:27:36.533Z,18.14
2019-05-26T11:30:10.024Z,17.15
2019-05-26T11:32:38.674Z,17.77
2019-05-26T11:35:08.214Z,18.37
2019-05-26T11:37:36.892Z,18.50
2019-05-26T11:40:09.843Z,19.35
2019-05-26T11:42:38.557Z,20.00
2019-05-26T11:45:08.905Z,20.32
2019-05-26T11:47:37.541Z,20.24
2019-05-26T11:50:07.767Z,21.42
2019-05-26T11:52:36.496Z,21.67
2019-05-26T11:55:08.693Z,22.29
2019-05-26T11:57:37.666Z,22.58
2019-05-26T12:00:08.802Z,22.41
2019-05-26T12:02:38.381Z,22.57
2019-05-26T12:05:08.211Z,22.16
2019-05-26T12:07:36.878Z,22.58
2019-05-26T12:10:07.666Z,22.78
2019-05-26T12:12:36.352Z,22.47
2019-05-26T12:15:07.259Z,22.60
2019-05-26T12:17:36.082Z,22.57
2019-05-26T12:20:06.434Z,22.44
2019-05-26T12:22:35.157Z,22.24
2019-05-26T12:25:05.625Z,22.32
2019-05-26T12:27:34.260Z,22.18
2019-05-26T12:30:03.025Z,21.70
2019-05-26T12:32:31.651Z,22.58
2019-05-26T12:35:00.214Z,21.42
2019-05-26T12:37:28.852Z,21.13
2019-05-26T12:39:57.538Z,21.29
2019-05-26T12:42:26.204Z,21.74
2019-05-26T12:44:54.857Z,22.45
2019-05-26T12:47:23.432Z,23.16
2019-05-26T12:49:52.075Z,22.94
2019-05-26T12:52:20.776Z,23.33
2019-05-26T12:54:49.343Z,23.72
2019-05-26T12:57:18.009Z,23.33
2019-05-26T12:59:46.637Z,23.46
2019-05-26T13:02:15.300Z,23.22
2019-05-26T13:04:43.942Z,23.42
2019-05-26T13:07:12.565Z,23.34
2019-05-26T13:09:41.271Z,23.33
2019-05-26T13:12:09.909Z,23.10
2019-05-26T13:14:38.534Z,23.31
2019-05-26T13:17:07.097Z,23.26
2019-05-26T13:19:35.723Z,23.48
2019-05-26T13:22:04.954Z,23.16
2019-05-26T13:24:33.508Z,23.16
2019-05-26T13:27:02.241Z,24.35
2019-05-26T13:29:30.892Z,23.61
2019-05-26T13:31:59.511Z,23.02
2019-05-26T13:34:28.149Z,23.97
2019-05-26T13:36:56.784Z,23.77
2019-05-26T13:39:25.440Z,23.78
2019-05-26T13:41:54.051Z,24.14
2019-05-26T13:44:22.668Z,24.79
2019-05-26T13:46:51.693Z,24.33
2019-05-26T13:49:20.334Z,25.41
2019-05-26T13:51:50.478Z,25.09
2019-05-26T13:54:19.347Z,25.62
2019-05-26T13:56:47.917Z,26.49
2019-05-26T13:59:16.557Z,27.06
2019-05-26T14:01:45.184Z,26.62
2019-05-26T14:04:13.821Z,27.14
2019-05-26T14:06:42.464Z,27.05
2019-05-26T14:09:11.144Z,27.23
2019-05-26T14:11:39.779Z,27.15
2019-05-26T14:14:08.403Z,27.16
2019-05-26T14:16:38.781Z,26.90
2019-05-26T14:19:07.434Z,26.64
2019-05-26T14:21:36.164Z,26.21
2019-05-26T14:24:05.247Z,26.66
2019-05-26T14:26:33.881Z,26.45
2019-05-26T14:29:02.526Z,26.51
2019-05-26T14:31:31.123Z,26.33
2019-05-26T14:33:59.857Z,26.81
2019-05-26T14:36:28.488Z,26.62
2019-05-26T14:38:57.162Z,26.85
2019-05-26T14:41:25.810Z,26.92
2019-05-26T14:43:54.566Z,26.20
2019-05-26T14:46:23.218Z,26.16
2019-05-26T14:48:51.883Z,27.08
2019-05-26T14:51:20.533Z,26.80
2019-05-26T14:53:49.157Z,27.14
2019-05-26T14:56:17.789Z,27.61
2019-05-26T14:58:46.333Z,27.35
2019-05-26T15:01:16.513Z,27.72
2019-05-26T15:03:45.238Z,27.16
2019-05-26T15:06:13.890Z,27.10
2019-05-26T15:08:42.543Z,26.77
2019-05-26T15:11:11.205Z,27.05
2019-05-26T15:13:39.838Z,27.16
2019-05-26T15:16:10.204Z,28.00
2019-05-26T15:18:38.863Z,28.31
2019-05-26T15:21:07.544Z,28.27
2019-05-26T15:23:36.175Z,28.59
2019-05-26T15:26:05.565Z,29.06
2019-05-26T15:28:34.415Z,29.35
2019-05-26T15:31:03.056Z,30.01
2019-05-26T15:33:31.690Z,30.31
2019-05-26T15:36:00.395Z,30.28
2019-05-26T15:38:41.967Z,29.77
2019-05-26T15:40:59.467Z,30.42
2019-05-26T15:43:28.098Z,30.70
2019-05-26T15:45:56.731Z,30.27
2019-05-26T15:48:25.374Z,30.13
2019-05-26T15:50:54.009Z,30.65
2019-05-26T15:53:22.644Z,30.89
2019-05-26T15:55:51.279Z,31.00
2019-05-26T15:58:19.978Z,31.17
2019-05-26T16:00:48.622Z,31.38
2019-05-26T16:03:17.357Z,31.29
2019-05-26T16:05:45.998Z,31.86
2019-05-26T16:08:15.112Z,31.95
2019-05-26T16:10:43.836Z,30.89
2019-05-26T16:13:12.558Z,30.61
2019-05-26T16:15:41.308Z,30.66
2019-05-26T16:18:09.940Z,31.29
2019-05-26T16:20:38.592Z,31.34
2019-05-26T16:23:08.876Z,32.08
2019-05-26T16:25:37.637Z,31.86
2019-05-26T16:28:06.293Z,32.09
2019-05-26T16:30:34.920Z,32.08
2019-05-26T16:33:03.583Z,32.63
2019-05-26T16:35:32.224Z,32.63
2019-05-26T16:38:00.810Z,33.11
2019-05-26T16:40:29.525Z,33.61
2019-05-26T16:42:58.184Z,33.99
2019-05-26T16:45:26.896Z,34.42
2019-05-26T16:47:55.523Z,34.66
2019-05-26T16:50:24.253Z,34.22
2019-05-26T16:52:54.526Z,34.50
2019-05-26T16:55:23.403Z,34.28
2019-05-26T16:57:52.227Z,34.44
2019-05-26T17:00:21.051Z,34.38
2019-05-26T17:02:49.687Z,34.58
2019-05-26T17:05:18.339Z,34.68
2019-05-26T17:07:50.235Z,34.29
2019-05-26T17:10:17.444Z,34.41
2019-05-26T17:12:46.066Z,34.55
2019-05-26T17:15:14.749Z,34.65
2019-05-26T17:17:43.394Z,34.64
2019-05-26T17:20:12.628Z,34.77
2019-05-26T17:22:41.347Z,35.03
2019-05-26T17:25:10.177Z,35.21
2019-05-26T17:27:38.829Z,35.63
2019-05-26T17:30:08.468Z,35.93
2019-05-26T17:32:37.283Z,36.92
2019-05-26T17:35:07.128Z,37.08
2019-05-26T17:37:35.776Z,37.56
2019-05-26T17:40:06.270Z,37.68
2019-05-26T17:42:35.030Z,38.10
2019-05-26T17:45:05.299Z,38.38
2019-05-26T17:47:33.943Z,38.67
2019-05-26T17:50:02.945Z,38.94
2019-05-26T17:52:31.588Z,39.24
2019-05-26T17:55:00.224Z,39.29
2019-05-26T17:57:28.881Z,39.45
2019-05-26T17:59:57.520Z,39.35
2019-05-26T18:02:26.263Z,39.73
2019-05-26T18:04:54.920Z,39.88
2019-05-26T18:07:23.569Z,40.01
2019-05-26T18:09:52.202Z,40.18
2019-05-26T18:12:21.031Z,40.29
2019-05-26T18:14:49.666Z,40.07
2019-05-26T18:17:18.294Z,40.34
2019-05-26T18:19:47.865Z,40.34
2019-05-26T18:22:16.539Z,40.39
2019-05-26T18:24:54.348Z,40.58
2019-05-26T18:27:15.839Z,40.86
2019-05-26T18:29:46.644Z,41.09
2019-05-26T18:32:15.522Z,41.13
2019-05-26T18:34:44.073Z,41.65
2019-05-26T18:37:13.583Z,41.86
2019-05-26T18:39:44.232Z,42.31
2019-05-26T18:42:13.774Z,42.27
2019-05-26T18:44:43.419Z,42.13
2019-05-26T18:47:12.424Z,42.08
2019-05-26T18:49:41.476Z,41.94
2019-05-26T18:52:11.064Z,42.14
2019-05-26T18:54:40.589Z,41.86
2019-05-26T18:57:09.425Z,42.07
2019-05-26T18:59:37.889Z,42.06
2019-05-26T19:02:07.476Z,41.45
2019-05-26T19:04:36.157Z,41.12
2019-05-26T19:07:09.692Z,40.94
2019-05-26T19:09:39.418Z,41.38
2019-05-26T19:12:08.061Z,41.70
2019-05-26T19:14:37.016Z,42.08
2019-05-26T19:17:06.232Z,41.76
2019-05-26T19:19:35.769Z,40.77
2019-05-26T19:22:04.542Z,40.95
2019-05-26T19:24:33.547Z,41.26
2019-05-26T19:27:03.214Z,42.60
2019-05-26T19:29:32.303Z,41.77
2019-05-26T19:32:01.891Z,41.45
2019-05-26T19:34:31.664Z,41.24
2019-05-26T19:37:01.243Z,41.31
2019-05-26T19:39:31.054Z,41.22
2019-05-26T19:42:00.623Z,41.27
2019-05-26T19:44:29.331Z,41.28
2019-05-26T19:46:59.907Z,41.16
2019-05-26T19:49:30.110Z,41.26
2019-05-26T19:52:00.839Z,41.66
2019-05-26T19:54:31.381Z,42.73
2019-05-26T19:57:01.065Z,43.56
2019-05-26T19:59:30.043Z,43.57
2019-05-26T20:01:59.058Z,43.12
2019-05-26T20:04:28.027Z,43.68
2019-05-26T20:06:58.339Z,43.37
2019-05-26T20:09:28.876Z,43.42
2019-05-26T20:11:57.496Z,43.11
2019-05-26T20:14:28.058Z,43.70
2019-05-26T20:16:57.075Z,43.59
2019-05-26T20:19:27.527Z,44.26
2019-05-26T20:21:56.301Z,43.74
2019-05-26T20:24:25.261Z,44.46
2019-05-26T20:26:54.742Z,43.58
2019-05-26T20:29:27.069Z,44.15
2019-05-26T20:31:56.052Z,44.09
2019-05-26T20:34:24.684Z,44.01
2019-05-26T20:36:54.441Z,44.06
2019-05-26T20:39:23.418Z,44.19
2019-05-26T20:41:52.401Z,44.03
2019-05-26T20:44:21.979Z,44.11
2019-05-26T20:46:51.444Z,44.85
2019-05-26T20:49:21.040Z,45.47
2019-05-26T20:51:50.485Z,45.43
2019-05-26T20:54:19.581Z,45.26
2019-05-26T20:56:48.156Z,45.79
2019-05-26T20:59:17.106Z,45.95
2019-05-26T21:01:45.740Z,46.96
2019-05-26T21:04:14.720Z,47.21
2019-05-26T21:06:44.311Z,46.15
2019-05-26T21:09:13.258Z,46.08
2019-05-26T21:11:41.898Z,46.26
2019-05-26T21:14:10.909Z,46.32
2019-05-26T21:16:40.492Z,46.47
2019-05-26T21:19:10.079Z,46.81
2019-05-26T21:21:39.033Z,46.94
2019-05-26T21:24:08.646Z,47.96
2019-05-26T21:26:38.135Z,48.75
2019-05-26T21:29:06.919Z,50.26
2019-05-26T21:31:35.884Z,48.44
2019-05-26T21:34:04.894Z,47.72
2019-05-26T21:36:33.945Z,49.14
2019-05-26T21:39:02.914Z,49.68
2019-05-26T21:41:31.564Z,48.63
2019-05-26T21:44:00.326Z,49.62
2019-05-26T21:46:29.953Z,48.66
2019-05-26T21:48:59.528Z,49.76
2019-05-26T21:51:28.145Z,51.41
2019-05-26T21:53:58.198Z,50.41
2019-05-26T21:56:27.150Z,50.96
2019-05-26T21:58:56.805Z,48.89
2019-05-26T22:01:25.757Z,49.91
2019-05-26T22:03:54.943Z,50.20
2019-05-26T22:06:24.555Z,50.86
2019-05-26T22:08:55.721Z,51.92
2019-05-26T22:11:25.139Z,52.33
2019-05-26T22:13:55.183Z,53.70
2019-05-26T22:16:24.865Z,54.16
2019-05-26T22:18:54.736Z,53.56
2019-05-26T22:21:23.671Z,52.52
2019-05-26T22:23:53.200Z,52.24
2019-05-26T22:26:22.784Z,52.95
2019-05-26T22:28:51.522Z,54.07
2019-05-26T22:31:21.688Z,53.54
2019-05-26T22:33:51.249Z,52.86
2019-05-26T22:36:20.786Z,54.67
2019-05-26T22:38:49.542Z,54.43
2019-05-26T22:41:18.166Z,54.22
2019-05-26T22:43:46.745Z,53.52
2019-05-26T22:46:15.294Z,54.66
2019-05-26T22:48:43.865Z,55.15
2019-05-26T22:51:12.499Z,55.77
2019-05-26T22:53:41.165Z,53.19
2019-05-26T22:56:09.798Z,53.66
2019-05-26T22:58:38.353Z,53.98
2019-05-26T23:01:07.027Z,54.23
2019-05-26T23:03:35.588Z,54.84
2019-05-26T23:06:04.426Z,55.75
2019-05-26T23:08:33.118Z,55.87
2019-05-26T23:11:01.746Z,56.12
2019-05-26T23:13:30.401Z,56.61
2019-05-26T23:15:59.030Z,56.92
2019-05-26T23:18:27.930Z,57.43
2019-05-26T23:20:56.578Z,56.37
2019-05-26T23:23:25.140Z,55.56
2019-05-26T23:25:53.716Z,55.29
2019-05-26T23:28:22.344Z,55.51
2019-05-26T23:30:51.030Z,55.56
2019-05-26T23:33:19.665Z,55.83
2019-05-26T23:35:48.301Z,55.66
2019-05-26T23:38:16.946Z,55.72
2019-05-26T23:40:45.607Z,55.91
2019-05-26T23:43:14.168Z,55.84
2019-05-26T23:45:42.794Z,56.30
2019-05-26T23:48:11.660Z,56.38
2019-05-26T23:50:40.280Z,56.25
2019-05-26T23:53:08.905Z,56.76
2019-05-26T23:55:37.544Z,56.73
2019-05-26T23:58:06.177Z,56.57
